Time;durP1;ratioP1;P1;durP2;ratioP2;P2;SDS_P1;SDS_P2;PMS_P1;PMS_P2;Temp;Humidity;BMP_temperature;BMP_pressure;BME280_temperature;BME280_humidity;BME280_pressure;Samples;Min_cycle;Max_cycle;Signal;HPM_P1;HPM_P2
2023/04/26 00:07:25;;;;;;;;;;;;;;;6.20;74.91;101798.31;20794361;28;19925;-56
2023/04/26 00:17:47;;;;;;;;;;;;;;;6.22;75.03;101828.31;20808263;28;19951;-56
2023/04/26 00:28:08;;;;;;;;;;;;;;;5.92;77.12;101802.47;20795482;28;19926;-56
2023/04/26 00:38:30;;;;;;;;;;;;;;;5.87;78.42;101804.19;20802004;28;20147;-55
2023/04/26 00:48:51;;;;;;;;;;;;;;;5.87;78.29;101814.44;20799297;28;19929;-56
2023/04/26 00:59:15;;;;;;;;;;;;;;;5.90;77.42;101819.59;20771640;28;20218;-56
2023/04/26 01:09:37;;;;;;;;;;;;;;;5.94;76.86;101808.47;20794480;28;19925;-56
2023/04/26 01:19:58;;;;;;;;;;;;;;;5.91;78.55;101813.63;20799615;28;20006;-55
2023/04/26 01:30:20;;;;;;;;;;;;;;;5.89;77.14;101823.03;20792165;28;20328;-56
2023/04/26 01:40:44;;;;;;;;;;;;;;;5.80;77.96;101820.38;20794182;28;19967;-56
2023/04/26 01:51:06;;;;;;;;;;;;;;;5.76;77.67;101814.38;20799459;28;19925;-54
2023/04/26 02:01:27;;;;;;;;;;;;;;;5.78;77.75;101799.81;20809875;28;19929;-56
2023/04/26 02:11:49;;;;;;;;;;;;;;;5.68;77.78;101803.19;20809389;28;20312;-56
2023/04/26 02:22:10;;;;;;;;;;;;;;;5.65;77.26;101807.44;20812162;28;20712;-54
2023/04/26 02:32:31;;;;;;;;;;;;;;;5.56;77.73;101802.25;20810404;28;21353;-55
2023/04/26 02:42:53;;;;;;;;;;;;;;;5.55;78.65;101805.69;20808296;28;20016;-53
2023/04/26 02:53:16;;;;;;;;;;;;;;;5.42;78.67;101803.88;20809990;28;20528;-53
2023/04/26 03:03:37;;;;;;;;;;;;;;;5.27;78.43;101824.31;20795723;28;19925;-53
2023/04/26 03:13:59;;;;;;;;;;;;;;;5.18;78.75;101808.84;20804094;28;19929;-55
2023/04/26 03:24:20;;;;;;;;;;;;;;;5.14;78.56;101792.56;20802947;28;19933;-56
2023/04/26 03:34:42;;;;;;;;;;;;;;;5.14;79.14;101807.97;20793646;28;19925;-53
2023/04/26 03:45:03;;;;;;;;;;;;;;;5.24;77.85;101844.81;20799297;28;19979;-55
2023/04/26 03:55:25;;;;;;;;;;;;;;;5.12;80.31;101825.03;20797214;28;19936;-54
2023/04/26 04:05:46;;;;;;;;;;;;;;;5.10;81.65;101816.47;20795166;28;19925;-55
2023/04/26 04:16:09;;;;;;;;;;;;;;;5.13;81.14;101825.91;20803219;28;19975;-55
2023/04/26 04:26:30;;;;;;;;;;;;;;;5.12;83.32;101827.59;20798641;28;20400;-55
2023/04/26 04:36:53;;;;;;;;;;;;;;;5.04;82.43;101807.03;20796150;28;19976;-55
2023/04/26 04:47:14;;;;;;;;;;;;;;;5.13;82.68;101815.66;20800063;28;19983;-54
2023/04/26 04:57:36;;;;;;;;;;;;;;;5.22;84.79;101825.97;20797504;28;19991;-55
2023/04/26 05:07:57;;;;;;;;;;;;;;;5.34;83.36;101831.19;20783469;28;20348;-56
2023/04/26 05:18:18;;;;;;;;;;;;;;;5.44;82.21;101844.09;20792171;28;19979;-56
2023/04/26 05:28:40;;;;;;;;;;;;;;;5.45;82.46;101824.44;20798712;28;19929;-56
2023/04/26 05:39:04;;;;;;;;;;;;;;;5.47;84.75;101843.25;20792538;28;19979;-56
2023/04/26 05:49:25;;;;;;;;;;;;;;;5.45;82.03;101839.81;20784101;28;19932;-56
2023/04/26 05:59:47;;;;;;;;;;;;;;;5.42;81.50;101837.25;20802857;28;19971;-56
2023/04/26 06:10:09;;;;;;;;;;;;;;;5.48;81.85;101850.09;20794908;28;19925;-53
2023/04/26 06:20:30;;;;;;;;;;;;;;;5.70;81.88;101842.56;20798432;28;19960;-56
2023/04/26 06:30:52;;;;;;;;;;;;;;;6.07;79.34;101856.50;20782520;28;19933;-54
2023/04/26 06:41:13;;;;;;;;;;;;;;;6.46;79.85;101853.22;20793071;28;19925;-56
2023/04/26 06:51:35;;;;;;;;;;;;;;;6.91;77.02;101861.91;20811227;28;19929;-56
2023/04/26 07:01:56;;;;;;;;;;;;;;;7.20;73.77;101861.09;20810576;28;19929;-56
2023/04/26 07:12:18;;;;;;;;;;;;;;;7.34;73.99;101875.69;20792939;28;19933;-56
2023/04/26 07:22:39;;;;;;;;;;;;;;;7.37;72.64;101865.38;20802147;28;19925;-56
2023/04/26 07:33:01;;;;;;;;;;;;;;;7.54;71.96;101868.81;20807764;28;19929;-56
2023/04/26 07:43:23;;;;;;;;;;;;;;;7.81;71.65;101863.59;20805688;28;19971;-56
2023/04/26 07:53:45;;;;;;;;;;;;;;;8.09;71.86;101861.81;20793630;28;20335;-55
2023/04/26 08:04:06;;;;;;;;;;;;;;;8.44;71.19;101866.88;20803236;28;20293;-56
2023/04/26 08:14:29;;;;;;;;;;;;;;;8.55;67.52;101863.34;20800170;28;19932;-53
2023/04/26 08:24:53;;;;;;;;;;;;;;;8.71;65.68;101861.56;20802876;28;19933;-53
2023/04/26 08:35:15;;;;;;;;;;;;;;;8.80;66.68;101864.94;20799491;28;19929;-55
2023/04/26 08:45:37;;;;;;;;;;;;;;;8.73;65.44;101878.75;20797453;28;19928;-55
2023/04/26 08:55:59;;;;;;;;;;;;;;;8.10;76.00;101908.19;20792579;28;19979;-55
2023/04/26 09:06:22;;;;;;;;;;;;;;;7.61;76.39;101916.88;20789599;28;19926;-55
2023/04/26 09:16:43;;;;;;;;;;;;;;;7.78;76.25;101906.56;20781028;28;19925;-56
2023/04/26 09:27:05;;;;;;;;;;;;;;;8.04;76.66;101902.19;20790861;28;20020;-55
2023/04/26 09:37:27;;;;;;;;;;;;;;;8.52;72.41;101909.81;20794065;28;19936;-56
2023/04/26 09:47:48;;;;;;;;;;;;;;;8.88;69.17;101911.34;20795819;28;19952;-56
2023/04/26 09:58:10;;;;;;;;;;;;;;;9.04;68.96;101895.78;20770148;28;19925;-55
2023/04/26 10:08:32;;;;;;;;;;;;;;;9.18;66.80;101910.28;20775853;28;19925;-55
2023/04/26 10:18:53;;;;;;;;;;;;;;;9.40;66.32;101901.50;20767391;28;19936;-56
2023/04/26 10:29:15;;;;;;;;;;;;;;;9.52;63.70;101885.94;20810544;28;20031;-57
2023/04/26 10:39:38;;;;;;;;;;;;;;;9.84;63.92;101881.31;20793941;28;20445;-56
2023/04/26 10:50:06;;;;;;;;;;;;;;;10.17;64.20;101875.81;20801576;28;19929;-56
2023/04/26 11:00:28;;;;;;;;;;;;;;;10.27;63.71;101867.06;20808754;28;19994;-56
2023/04/26 11:10:53;;;;;;;;;;;;;;;9.81;66.08;101894.25;20799485;28;19940;-56
2023/04/26 11:21:17;;;;;;;;;;;;;;;9.00;71.66;101901.81;20801919;28;20388;-56
2023/04/26 11:31:39;;;;;;;;;;;;;;;8.96;72.41;101894.94;20791178;28;19925;-57
2023/04/26 11:42:05;;;;;;;;;;;;;;;9.23;70.54;101893.88;20808814;28;20016;-56
2023/04/26 11:52:26;;;;;;;;;;;;;;;9.58;69.73;101896.19;20807193;28;19929;-56
2023/04/26 12:02:48;;;;;;;;;;;;;;;9.74;69.58;101897.78;20803632;28;19964;-57
2023/04/26 12:13:12;;;;;;;;;;;;;;;10.13;66.84;101897.41;20786548;28;19925;-56
2023/04/26 12:23:38;;;;;;;;;;;;;;;10.94;67.35;101886.00;20805603;28;20015;-56
2023/04/26 12:33:59;;;;;;;;;;;;;;;10.68;67.71;101913.97;20800818;28;19931;-57
2023/04/26 12:44:21;;;;;;;;;;;;;;;10.46;67.60;101911.66;20796657;28;19933;-55
2023/04/26 12:54:43;;;;;;;;;;;;;;;10.05;67.47;101919.88;20810193;28;19936;-57
2023/04/26 13:05:06;;;;;;;;;;;;;;;9.97;68.41;101921.69;20793544;28;19955;-55
2023/04/26 13:15:28;;;;;;;;;;;;;;;10.15;68.06;101921.50;20796440;28;19979;-56
2023/04/26 13:25:50;;;;;;;;;;;;;;;10.60;65.81;101915.78;20783879;28;19948;-57
2023/04/26 13:36:11;;;;;;;;;;;;;;;10.70;61.97;101927.75;20796233;28;19979;-58
2023/04/26 13:46:33;;;;;;;;;;;;;;;10.32;65.45;101949.78;20799704;28;20010;-55
2023/04/26 13:56:54;;;;;;;;;;;;;;;9.98;64.48;101955.25;20816245;28;19929;-57
2023/04/26 14:07:16;;;;;;;;;;;;;;;9.84;64.91;101948.50;20818530;28;20635;-57
2023/04/26 14:17:37;;;;;;;;;;;;;;;9.67;65.17;101953.81;20822472;28;19928;-56
2023/04/26 14:27:59;;;;;;;;;;;;;;;9.62;65.43;101949.56;20822938;28;19979;-56
2023/04/26 14:38:21;;;;;;;;;;;;;;;9.56;66.78;101978.06;20814498;28;19998;-56
2023/04/26 14:48:43;;;;;;;;;;;;;;;9.10;70.73;101974.91;20820354;28;20251;-55
2023/04/26 14:59:05;;;;;;;;;;;;;;;8.96;71.96;101977.56;20816964;28;19933;-56
2023/04/26 15:09:26;;;;;;;;;;;;;;;8.93;72.63;101972.41;20802980;28;19929;-56
2023/04/26 15:19:50;;;;;;;;;;;;;;;8.94;72.63;101958.63;20808423;28;19984;-56
2023/04/26 15:30:12;;;;;;;;;;;;;;;9.03;72.82;101958.56;20800832;28;19957;-55
2023/04/26 15:40:33;;;;;;;;;;;;;;;9.38;72.30;101963.53;20803886;28;19972;-54
2023/04/26 15:50:57;;;;;;;;;;;;;;;9.64;71.02;101953.00;20818755;28;20016;-53
2023/04/26 16:01:19;;;;;;;;;;;;;;;10.21;70.12;101947.31;20801299;28;20410;-56
2023/04/26 16:11:41;;;;;;;;;;;;;;;10.34;68.15;101943.75;20794391;28;20446;-54
2023/04/26 16:22:02;;;;;;;;;;;;;;;10.31;65.40;101938.56;20799096;28;20339;-54
2023/04/26 16:32:25;;;;;;;;;;;;;;;10.21;62.99;101942.16;20796504;28;19931;-55
2023/04/26 16:42:46;;;;;;;;;;;;;;;9.99;63.19;101950.97;20786720;28;20023;-54
2023/04/26 16:53:08;;;;;;;;;;;;;;;9.92;64.35;101944.13;20795355;28;20019;-56
2023/04/26 17:03:30;;;;;;;;;;;;;;;9.82;62.16;101958.88;20792673;28;19925;-54
2023/04/26 17:13:51;;;;;;;;;;;;;;;9.77;62.71;101954.59;20794087;28;19956;-56
2023/04/26 17:24:13;;;;;;;;;;;;;;;9.74;63.05;101959.81;20793155;28;19929;-55
2023/04/26 17:34:37;;;;;;;;;;;;;;;9.73;62.78;101958.94;20788379;28;19968;-54
2023/04/26 17:45:00;;;;;;;;;;;;;;;9.62;62.36;101965.06;20782889;28;19925;-56
2023/04/26 17:55:21;;;;;;;;;;;;;;;9.55;63.10;101978.91;20796483;28;19961;-55
2023/04/26 18:05:43;;;;;;;;;;;;;;;9.49;64.23;101984.09;20793210;28;19933;-56
2023/04/26 18:16:05;;;;;;;;;;;;;;;9.38;64.09;101983.31;20791179;28;20038;-56
2023/04/26 18:26:27;;;;;;;;;;;;;;;9.27;64.71;101988.56;20793602;28;19929;-55
2023/04/26 18:36:48;;;;;;;;;;;;;;;9.20;65.34;102004.09;20777794;28;19929;-55
2023/04/26 18:47:10;;;;;;;;;;;;;;;9.06;65.45;101999.84;20806166;28;19925;-56
2023/04/26 18:57:31;;;;;;;;;;;;;;;9.02;66.03;102018.84;20796028;28;19983;-56
2023/04/26 19:07:53;;;;;;;;;;;;;;;8.94;66.62;102015.41;20811729;28;19975;-55
2023/04/26 19:18:15;;;;;;;;;;;;;;;8.83;66.90;102032.66;20802205;28;19991;-53
2023/04/26 19:28:37;;;;;;;;;;;;;;;8.75;67.29;102023.25;20808596;28;19979;-55
2023/04/26 19:38:58;;;;;;;;;;;;;;;8.68;68.61;102037.88;20802597;28;20388;-55
2023/04/26 19:49:20;;;;;;;;;;;;;;;8.56;68.50;102040.50;20798356;28;20108;-54
2023/04/26 19:59:42;;;;;;;;;;;;;;;8.43;68.99;102041.38;20797993;28;19929;-56
2023/04/26 20:10:03;;;;;;;;;;;;;;;8.34;69.23;102051.69;20806027;28;19929;-55
2023/04/26 20:20:25;;;;;;;;;;;;;;;8.18;69.06;102053.38;20803045;28;19932;-54
2023/04/26 20:30:46;;;;;;;;;;;;;;;8.00;70.29;102058.56;20817626;28;19933;-56
2023/04/26 20:41:07;;;;;;;;;;;;;;;7.96;71.40;102074.03;20798803;28;19971;-55
2023/04/26 20:51:29;;;;;;;;;;;;;;;7.88;70.69;102080.88;20799519;28;19929;-54
2023/04/26 21:01:51;;;;;;;;;;;;;;;7.82;70.87;102083.47;20795619;28;19971;-54
2023/04/26 21:12:12;;;;;;;;;;;;;;;7.73;71.00;102079.16;20797282;28;19925;-55
2023/04/26 21:22:34;;;;;;;;;;;;;;;7.57;71.79;102081.69;20799129;28;19929;-55
2023/04/26 21:32:55;;;;;;;;;;;;;;;7.45;72.25;102094.53;20799119;28;19929;-54
2023/04/26 21:43:18;;;;;;;;;;;;;;;7.26;71.76;102093.59;20809053;28;19932;-55
2023/04/26 21:53:40;;;;;;;;;;;;;;;7.01;71.98;102094.38;20788480;28;19929;-55
2023/04/26 22:04:01;;;;;;;;;;;;;;;6.97;72.96;102093.50;20791540;28;19925;-53
2023/04/26 22:14:23;;;;;;;;;;;;;;;6.89;72.61;102108.00;20796633;28;20320;-56
2023/04/26 22:24:44;;;;;;;;;;;;;;;6.82;72.17;102098.53;20809102;28;20003;-56
2023/04/26 22:35:06;;;;;;;;;;;;;;;6.73;72.91;102116.50;20814625;28;19941;-54
2023/04/26 22:45:28;;;;;;;;;;;;;;;6.55;73.78;102126.66;20811411;28;19929;-54
2023/04/26 22:55:50;;;;;;;;;;;;;;;6.42;73.29;102135.13;20805373;28;19951;-56
2023/04/26 23:06:12;;;;;;;;;;;;;;;6.21;73.58;102128.97;20807527;28;19935;-56
2023/04/26 23:16:33;;;;;;;;;;;;;;;6.15;74.14;102145.19;20805883;28;19932;-56
2023/04/26 23:26:55;;;;;;;;;;;;;;;6.07;73.76;102150.25;20803331;28;19940;-56
2023/04/26 23:37:16;;;;;;;;;;;;;;;5.98;75.21;102146.72;20806110;28;19983;-55
2023/04/26 23:47:38;;;;;;;;;;;;;;;6.01;74.10;102139.03;20813113;28;20621;-55
2023/04/26 23:57:59;;;;;;;;;;;;;;;5.89;76.21;102136.34;20806480;28;20377;-56
